sensor_id;sensor_type;location;lat;lon;timestamp;temperature;humidity
15937;DHT22;9163;48.818;8.976;2023-04-12T00:01:58;7.40;99.90
15937;DHT22;9163;48.818;8.976;2023-04-12T00:04:25;7.40;99.90
15937;DHT22;9163;48.818;8.976;2023-04-12T00:06:54;7.30;99.90
15937;DHT22;9163;48.818;8.976;2023-04-12T00:09:21;7.30;99.90
15937;DHT22;9163;48.818;8.976;2023-04-12T00:11:48;7.30;99.90
15937;DHT22;9163;48.818;8.976;2023-04-12T00:14:15;7.30;99.90
15937;DHT22;9163;48.818;8.976;2023-04-12T00:16:43;7.30;99.90
15937;DHT22;9163;48.818;8.976;2023-04-12T00:19:12;7.20;99.90
15937;DHT22;9163;48.818;8.976;2023-04-12T00:21:42;7.20;99.90
15937;DHT22;9163;48.818;8.976;2023-04-12T00:24:09;7.10;99.90
15937;DHT22;9163;48.818;8.976;2023-04-12T00:26:36;7.10;99.90
15937;DHT22;9163;48.818;8.976;2023-04-12T00:29:03;7.00;99.90
15937;DHT22;9163;48.818;8.976;2023-04-12T00:31:31;7.00;99.90
15937;DHT22;9163;48.818;8.976;2023-04-12T00:33:58;6.90;99.90
15937;DHT22;9163;48.818;8.976;2023-04-12T00:36:26;6.90;99.90
15937;DHT22;9163;48.818;8.976;2023-04-12T00:38:53;7.00;99.90
15937;DHT22;9163;48.818;8.976;2023-04-12T00:41:21;7.00;99.90
15937;DHT22;9163;48.818;8.976;2023-04-12T00:43:49;6.90;99.90
15937;DHT22;9163;48.818;8.976;2023-04-12T00:46:17;6.90;99.90
15937;DHT22;9163;48.818;8.976;2023-04-12T00:48:45;6.90;99.90
15937;DHT22;9163;48.818;8.976;2023-04-12T00:51:13;6.80;99.90
15937;DHT22;9163;48.818;8.976;2023-04-12T00:53:44;6.80;99.90
15937;DHT22;9163;48.818;8.976;2023-04-12T00:56:11;6.80;99.90
15937;DHT22;9163;48.818;8.976;2023-04-12T00:58:39;6.70;99.90
15937;DHT22;9163;48.818;8.976;2023-04-12T01:01:06;6.70;99.90
15937;DHT22;9163;48.818;8.976;2023-04-12T01:03:35;6.70;99.90
15937;DHT22;9163;48.818;8.976;2023-04-12T01:06:11;6.70;99.90
15937;DHT22;9163;48.818;8.976;2023-04-12T01:08:52;6.70;99.90
15937;DHT22;9163;48.818;8.976;2023-04-12T01:11:25;6.60;99.90
15937;DHT22;9163;48.818;8.976;2023-04-12T01:13:59;6.60;99.90
15937;DHT22;9163;48.818;8.976;2023-04-12T01:16:33;6.60;99.90
15937;DHT22;9163;48.818;8.976;2023-04-12T01:19:17;6.60;99.90
15937;DHT22;9163;48.818;8.976;2023-04-12T01:21:56;6.60;99.90
15937;DHT22;9163;48.818;8.976;2023-04-12T01:24:38;6.50;99.90
15937;DHT22;9163;48.818;8.976;2023-04-12T01:29:43;6.50;99.90
15937;DHT22;9163;48.818;8.976;2023-04-12T01:32:14;6.50;99.90
15937;DHT22;9163;48.818;8.976;2023-04-12T01:34:43;6.50;99.90
15937;DHT22;9163;48.818;8.976;2023-04-12T01:37:11;6.50;99.90
15937;DHT22;9163;48.818;8.976;2023-04-12T01:39:41;6.50;99.90
15937;DHT22;9163;48.818;8.976;2023-04-12T01:42:08;6.40;99.90
15937;DHT22;9163;48.818;8.976;2023-04-12T01:44:36;6.40;99.90
15937;DHT22;9163;48.818;8.976;2023-04-12T01:47:04;6.40;99.90
15937;DHT22;9163;48.818;8.976;2023-04-12T01:49:37;6.40;99.90
15937;DHT22;9163;48.818;8.976;2023-04-12T01:52:11;6.40;99.90
15937;DHT22;9163;48.818;8.976;2023-04-12T01:54:41;6.40;99.90
15937;DHT22;9163;48.818;8.976;2023-04-12T01:57:10;6.40;99.90
15937;DHT22;9163;48.818;8.976;2023-04-12T01:59:39;6.40;99.90
15937;DHT22;9163;48.818;8.976;2023-04-12T02:02:08;6.40;99.90
15937;DHT22;9163;48.818;8.976;2023-04-12T02:04:37;6.40;99.90
15937;DHT22;9163;48.818;8.976;2023-04-12T02:07:04;6.40;99.90
15937;DHT22;9163;48.818;8.976;2023-04-12T02:09:35;6.40;99.90
15937;DHT22;9163;48.818;8.976;2023-04-12T02:12:03;6.40;99.90
15937;DHT22;9163;48.818;8.976;2023-04-12T02:14:31;6.30;99.90
15937;DHT22;9163;48.818;8.976;2023-04-12T02:16:58;6.30;99.90
15937;DHT22;9163;48.818;8.976;2023-04-12T02:19:28;6.40;99.90
15937;DHT22;9163;48.818;8.976;2023-04-12T02:21:56;6.40;99.90
15937;DHT22;9163;48.818;8.976;2023-04-12T02:24:23;6.30;99.90
15937;DHT22;9163;48.818;8.976;2023-04-12T02:26:50;6.30;99.90
15937;DHT22;9163;48.818;8.976;2023-04-12T02:29:19;6.30;99.90
15937;DHT22;9163;48.818;8.976;2023-04-12T02:31:47;6.30;99.90
15937;DHT22;9163;48.818;8.976;2023-04-12T02:34:14;6.30;99.90
15937;DHT22;9163;48.818;8.976;2023-04-12T02:36:46;6.30;99.90
15937;DHT22;9163;48.818;8.976;2023-04-12T02:39:14;6.30;99.90
15937;DHT22;9163;48.818;8.976;2023-04-12T02:41:43;6.30;99.90
15937;DHT22;9163;48.818;8.976;2023-04-12T02:44:10;6.30;99.90
15937;DHT22;9163;48.818;8.976;2023-04-12T02:46:37;6.30;99.90
15937;DHT22;9163;48.818;8.976;2023-04-12T02:49:05;6.30;99.90
15937;DHT22;9163;48.818;8.976;2023-04-12T02:51:32;6.30;99.90
15937;DHT22;9163;48.818;8.976;2023-04-12T02:54:01;6.30;99.90
15937;DHT22;9163;48.818;8.976;2023-04-12T02:56:28;6.30;99.90
15937;DHT22;9163;48.818;8.976;2023-04-12T02:58:56;6.30;99.90
15937;DHT22;9163;48.818;8.976;2023-04-12T03:01:23;6.30;99.90
15937;DHT22;9163;48.818;8.976;2023-04-12T03:03:50;6.30;99.90
15937;DHT22;9163;48.818;8.976;2023-04-12T03:06:17;6.30;99.90
15937;DHT22;9163;48.818;8.976;2023-04-12T03:08:45;6.30;99.90
15937;DHT22;9163;48.818;8.976;2023-04-12T03:11:14;6.40;99.90
15937;DHT22;9163;48.818;8.976;2023-04-12T03:13:41;6.30;99.90
15937;DHT22;9163;48.818;8.976;2023-04-12T03:16:21;6.30;99.90
15937;DHT22;9163;48.818;8.976;2023-04-12T03:18:49;6.30;99.90
15937;DHT22;9163;48.818;8.976;2023-04-12T03:21:16;6.30;99.90
15937;DHT22;9163;48.818;8.976;2023-04-12T03:23:44;6.40;99.90
15937;DHT22;9163;48.818;8.976;2023-04-12T03:26:11;6.30;99.90
15937;DHT22;9163;48.818;8.976;2023-04-12T03:28:40;6.30;99.90
15937;DHT22;9163;48.818;8.976;2023-04-12T03:31:07;6.30;99.90
15937;DHT22;9163;48.818;8.976;2023-04-12T03:33:35;6.30;99.90
15937;DHT22;9163;48.818;8.976;2023-04-12T03:36:03;6.30;99.90
15937;DHT22;9163;48.818;8.976;2023-04-12T03:38:30;6.40;99.90
15937;DHT22;9163;48.818;8.976;2023-04-12T03:40:58;6.30;99.90
15937;DHT22;9163;48.818;8.976;2023-04-12T03:43:25;6.30;99.90
15937;DHT22;9163;48.818;8.976;2023-04-12T03:45:54;6.30;99.90
15937;DHT22;9163;48.818;8.976;2023-04-12T03:48:22;6.40;99.90
15937;DHT22;9163;48.818;8.976;2023-04-12T03:50:49;6.40;99.90
15937;DHT22;9163;48.818;8.976;2023-04-12T03:53:19;6.40;99.90
15937;DHT22;9163;48.818;8.976;2023-04-12T03:55:47;6.40;99.90
15937;DHT22;9163;48.818;8.976;2023-04-12T03:58:14;6.40;99.90
15937;DHT22;9163;48.818;8.976;2023-04-12T04:00:41;6.40;99.90
15937;DHT22;9163;48.818;8.976;2023-04-12T04:03:10;6.40;99.90
15937;DHT22;9163;48.818;8.976;2023-04-12T04:05:38;6.40;99.90
15937;DHT22;9163;48.818;8.976;2023-04-12T04:08:05;6.40;99.90
15937;DHT22;9163;48.818;8.976;2023-04-12T04:10:33;6.40;99.90
15937;DHT22;9163;48.818;8.976;2023-04-12T04:13:01;6.40;99.90
15937;DHT22;9163;48.818;8.976;2023-04-12T04:15:28;6.40;99.90
15937;DHT22;9163;48.818;8.976;2023-04-12T04:17:55;6.40;99.90
15937;DHT22;9163;48.818;8.976;2023-04-12T04:20:25;6.40;99.90
15937;DHT22;9163;48.818;8.976;2023-04-12T04:22:52;6.40;99.90
15937;DHT22;9163;48.818;8.976;2023-04-12T04:25:19;6.50;99.90
15937;DHT22;9163;48.818;8.976;2023-04-12T04:27:46;6.50;99.90
15937;DHT22;9163;48.818;8.976;2023-04-12T04:30:14;6.50;99.90
15937;DHT22;9163;48.818;8.976;2023-04-12T04:32:41;6.50;99.90
15937;DHT22;9163;48.818;8.976;2023-04-12T04:35:09;6.50;99.90
15937;DHT22;9163;48.818;8.976;2023-04-12T04:37:42;6.50;99.90
15937;DHT22;9163;48.818;8.976;2023-04-12T04:40:10;6.40;99.90
15937;DHT22;9163;48.818;8.976;2023-04-12T04:42:37;6.40;99.90
15937;DHT22;9163;48.818;8.976;2023-04-12T04:45:05;6.40;99.90
15937;DHT22;9163;48.818;8.976;2023-04-12T04:47:38;6.40;99.90
15937;DHT22;9163;48.818;8.976;2023-04-12T04:50:06;6.40;99.90
15937;DHT22;9163;48.818;8.976;2023-04-12T04:52:34;6.40;99.90
15937;DHT22;9163;48.818;8.976;2023-04-12T04:55:04;6.40;99.90
15937;DHT22;9163;48.818;8.976;2023-04-12T04:57:32;6.40;99.90
15937;DHT22;9163;48.818;8.976;2023-04-12T05:00:00;6.40;99.90
15937;DHT22;9163;48.818;8.976;2023-04-12T05:02:35;6.40;99.90
15937;DHT22;9163;48.818;8.976;2023-04-12T05:05:05;6.40;99.90
15937;DHT22;9163;48.818;8.976;2023-04-12T05:07:32;6.40;99.90
15937;DHT22;9163;48.818;8.976;2023-04-12T05:09:59;6.40;99.90
15937;DHT22;9163;48.818;8.976;2023-04-12T05:12:28;6.40;99.90
15937;DHT22;9163;48.818;8.976;2023-04-12T05:14:56;6.40;99.90
15937;DHT22;9163;48.818;8.976;2023-04-12T05:17:23;6.40;99.90
15937;DHT22;9163;48.818;8.976;2023-04-12T05:19:50;6.40;99.90
15937;DHT22;9163;48.818;8.976;2023-04-12T05:22:17;6.50;99.90
15937;DHT22;9163;48.818;8.976;2023-04-12T05:24:46;6.50;99.90
15937;DHT22;9163;48.818;8.976;2023-04-12T05:27:14;6.50;99.90
15937;DHT22;9163;48.818;8.976;2023-04-12T05:29:43;6.50;99.90
15937;DHT22;9163;48.818;8.976;2023-04-12T05:32:10;6.50;99.90
15937;DHT22;9163;48.818;8.976;2023-04-12T05:34:38;6.50;99.90
15937;DHT22;9163;48.818;8.976;2023-04-12T05:37:05;6.60;99.90
15937;DHT22;9163;48.818;8.976;2023-04-12T05:39:33;6.60;99.90
15937;DHT22;9163;48.818;8.976;2023-04-12T05:42:00;6.60;99.90
15937;DHT22;9163;48.818;8.976;2023-04-12T05:44:27;6.60;99.90
15937;DHT22;9163;48.818;8.976;2023-04-12T05:46:56;6.60;99.90
15937;DHT22;9163;48.818;8.976;2023-04-12T05:49:23;6.70;99.90
15937;DHT22;9163;48.818;8.976;2023-04-12T05:51:50;6.70;99.90
15937;DHT22;9163;48.818;8.976;2023-04-12T05:54:17;6.70;99.90
15937;DHT22;9163;48.818;8.976;2023-04-12T05:56:46;6.70;99.90
15937;DHT22;9163;48.818;8.976;2023-04-12T05:59:13;6.70;99.90
15937;DHT22;9163;48.818;8.976;2023-04-12T06:01:41;6.80;99.90
15937;DHT22;9163;48.818;8.976;2023-04-12T06:04:11;6.80;99.90
15937;DHT22;9163;48.818;8.976;2023-04-12T06:06:38;6.80;99.90
15937;DHT22;9163;48.818;8.976;2023-04-12T06:09:06;6.90;99.90
15937;DHT22;9163;48.818;8.976;2023-04-12T06:11:33;6.90;99.90
15937;DHT22;9163;48.818;8.976;2023-04-12T06:14:00;7.00;99.90
15937;DHT22;9163;48.818;8.976;2023-04-12T06:16:28;7.00;99.90
15937;DHT22;9163;48.818;8.976;2023-04-12T06:18:55;7.00;99.90
15937;DHT22;9163;48.818;8.976;2023-04-12T06:21:24;7.00;99.90
15937;DHT22;9163;48.818;8.976;2023-04-12T06:23:51;7.00;99.90
15937;DHT22;9163;48.818;8.976;2023-04-12T06:26:18;7.00;99.90
15937;DHT22;9163;48.818;8.976;2023-04-12T06:28:45;7.10;99.90
15937;DHT22;9163;48.818;8.976;2023-04-12T06:31:14;7.10;99.90
15937;DHT22;9163;48.818;8.976;2023-04-12T06:33:41;7.20;99.90
15937;DHT22;9163;48.818;8.976;2023-04-12T06:36:09;7.20;99.90
15937;DHT22;9163;48.818;8.976;2023-04-12T06:38:37;7.20;99.90
15937;DHT22;9163;48.818;8.976;2023-04-12T06:41:05;7.20;99.90
15937;DHT22;9163;48.818;8.976;2023-04-12T06:43:32;7.20;99.90
15937;DHT22;9163;48.818;8.976;2023-04-12T06:46:00;7.20;99.90
15937;DHT22;9163;48.818;8.976;2023-04-12T06:48:28;7.20;99.90
15937;DHT22;9163;48.818;8.976;2023-04-12T06:50:55;7.30;99.90
15937;DHT22;9163;48.818;8.976;2023-04-12T06:53:22;7.30;99.90
15937;DHT22;9163;48.818;8.976;2023-04-12T06:55:51;7.30;99.90
15937;DHT22;9163;48.818;8.976;2023-04-12T06:58:18;7.30;99.90
15937;DHT22;9163;48.818;8.976;2023-04-12T07:00:46;7.30;99.90
15937;DHT22;9163;48.818;8.976;2023-04-12T07:03:13;7.40;99.90
15937;DHT22;9163;48.818;8.976;2023-04-12T07:05:40;7.40;99.90
15937;DHT22;9163;48.818;8.976;2023-04-12T07:08:07;7.40;99.90
15937;DHT22;9163;48.818;8.976;2023-04-12T07:10:35;7.40;99.90
15937;DHT22;9163;48.818;8.976;2023-04-12T07:13:04;7.50;99.90
15937;DHT22;9163;48.818;8.976;2023-04-12T07:15:33;7.50;99.90
15937;DHT22;9163;48.818;8.976;2023-04-12T07:18:00;7.60;99.90
15937;DHT22;9163;48.818;8.976;2023-04-12T07:20:27;7.70;99.90
15937;DHT22;9163;48.818;8.976;2023-04-12T07:22:54;7.80;99.90
15937;DHT22;9163;48.818;8.976;2023-04-12T07:25:22;7.80;99.90
15937;DHT22;9163;48.818;8.976;2023-04-12T07:27:49;7.90;99.90
15937;DHT22;9163;48.818;8.976;2023-04-12T07:30:18;7.90;99.90
15937;DHT22;9163;48.818;8.976;2023-04-12T07:32:45;8.00;99.90
15937;DHT22;9163;48.818;8.976;2023-04-12T07:35:13;8.10;99.90
15937;DHT22;9163;48.818;8.976;2023-04-12T07:37:41;8.10;99.90
15937;DHT22;9163;48.818;8.976;2023-04-12T07:40:08;8.10;99.90
15937;DHT22;9163;48.818;8.976;2023-04-12T07:42:35;8.20;99.90
15937;DHT22;9163;48.818;8.976;2023-04-12T07:45:03;8.20;99.90
15937;DHT22;9163;48.818;8.976;2023-04-12T07:47:32;8.20;99.90
15937;DHT22;9163;48.818;8.976;2023-04-12T07:49:59;8.30;99.90
15937;DHT22;9163;48.818;8.976;2023-04-12T07:52:27;8.30;99.90
15937;DHT22;9163;48.818;8.976;2023-04-12T07:54:54;8.30;99.90
15937;DHT22;9163;48.818;8.976;2023-04-12T07:57:21;8.40;99.90
15937;DHT22;9163;48.818;8.976;2023-04-12T07:59:49;8.40;99.90
15937;DHT22;9163;48.818;8.976;2023-04-12T08:02:16;8.50;99.90
15937;DHT22;9163;48.818;8.976;2023-04-12T08:04:51;8.50;99.90
15937;DHT22;9163;48.818;8.976;2023-04-12T08:07:18;8.50;99.90
15937;DHT22;9163;48.818;8.976;2023-04-12T08:09:47;8.60;99.90
15937;DHT22;9163;48.818;8.976;2023-04-12T08:12:14;8.60;99.90
15937;DHT22;9163;48.818;8.976;2023-04-12T08:14:41;8.60;99.90
15937;DHT22;9163;48.818;8.976;2023-04-12T08:17:09;8.60;99.90
15937;DHT22;9163;48.818;8.976;2023-04-12T08:19:36;8.60;99.90
15937;DHT22;9163;48.818;8.976;2023-04-12T08:22:05;8.60;99.90
15937;DHT22;9163;48.818;8.976;2023-04-12T08:24:33;8.60;99.90
15937;DHT22;9163;48.818;8.976;2023-04-12T08:27:00;8.70;99.90
15937;DHT22;9163;48.818;8.976;2023-04-12T08:29:28;8.70;99.90
15937;DHT22;9163;48.818;8.976;2023-04-12T08:31:55;8.70;99.90
15937;DHT22;9163;48.818;8.976;2023-04-12T08:34:25;8.80;99.90
15937;DHT22;9163;48.818;8.976;2023-04-12T08:36:52;8.90;99.90
15937;DHT22;9163;48.818;8.976;2023-04-12T08:39:21;9.00;99.90
15937;DHT22;9163;48.818;8.976;2023-04-12T08:41:49;9.10;99.90
15937;DHT22;9163;48.818;8.976;2023-04-12T08:44:17;9.10;99.90
15937;DHT22;9163;48.818;8.976;2023-04-12T08:46:46;9.20;99.90
15937;DHT22;9163;48.818;8.976;2023-04-12T08:49:15;9.30;99.90
15937;DHT22;9163;48.818;8.976;2023-04-12T08:51:43;9.40;99.90
15937;DHT22;9163;48.818;8.976;2023-04-12T08:54:11;9.40;99.90
15937;DHT22;9163;48.818;8.976;2023-04-12T08:56:42;9.40;99.90
15937;DHT22;9163;48.818;8.976;2023-04-12T08:59:11;9.40;99.90
15937;DHT22;9163;48.818;8.976;2023-04-12T09:01:40;9.40;99.90
15937;DHT22;9163;48.818;8.976;2023-04-12T09:04:08;9.50;99.90
15937;DHT22;9163;48.818;8.976;2023-04-12T09:06:35;9.40;99.90
15937;DHT22;9163;48.818;8.976;2023-04-12T09:09:02;9.50;99.90
15937;DHT22;9163;48.818;8.976;2023-04-12T09:11:31;9.40;99.90
15937;DHT22;9163;48.818;8.976;2023-04-12T09:14:00;9.40;99.90
15937;DHT22;9163;48.818;8.976;2023-04-12T09:16:37;9.50;99.90
15937;DHT22;9163;48.818;8.976;2023-04-12T09:19:05;9.60;99.90
15937;DHT22;9163;48.818;8.976;2023-04-12T09:21:33;9.70;99.90
15937;DHT22;9163;48.818;8.976;2023-04-12T09:24:02;9.80;99.90
15937;DHT22;9163;48.818;8.976;2023-04-12T09:26:31;10.00;99.90
15937;DHT22;9163;48.818;8.976;2023-04-12T09:28:59;10.10;99.90
15937;DHT22;9163;48.818;8.976;2023-04-12T09:31:26;10.10;99.90
15937;DHT22;9163;48.818;8.976;2023-04-12T09:34:04;10.00;99.90
15937;DHT22;9163;48.818;8.976;2023-04-12T09:36:36;10.10;99.90
15937;DHT22;9163;48.818;8.976;2023-04-12T09:39:03;10.10;99.90
15937;DHT22;9163;48.818;8.976;2023-04-12T09:41:31;10.30;99.90
15937;DHT22;9163;48.818;8.976;2023-04-12T09:44:00;10.30;99.90
15937;DHT22;9163;48.818;8.976;2023-04-12T09:46:30;10.30;99.90
15937;DHT22;9163;48.818;8.976;2023-04-12T09:49:00;10.40;99.90
15937;DHT22;9163;48.818;8.976;2023-04-12T09:51:29;10.40;99.90
15937;DHT22;9163;48.818;8.976;2023-04-12T09:53:59;10.20;99.90
15937;DHT22;9163;48.818;8.976;2023-04-12T09:56:29;10.30;99.90
15937;DHT22;9163;48.818;8.976;2023-04-12T09:59:01;10.20;99.90
15937;DHT22;9163;48.818;8.976;2023-04-12T10:01:32;10.30;99.90
15937;DHT22;9163;48.818;8.976;2023-04-12T10:04:01;10.40;99.90
15937;DHT22;9163;48.818;8.976;2023-04-12T10:06:29;10.50;99.90
15937;DHT22;9163;48.818;8.976;2023-04-12T10:08:56;10.40;99.90
15937;DHT22;9163;48.818;8.976;2023-04-12T10:11:25;10.70;99.90
15937;DHT22;9163;48.818;8.976;2023-04-12T10:13:55;10.70;99.90
15937;DHT22;9163;48.818;8.976;2023-04-12T10:16:25;10.80;99.90
15937;DHT22;9163;48.818;8.976;2023-04-12T10:18:54;10.80;99.90
15937;DHT22;9163;48.818;8.976;2023-04-12T10:21:22;10.60;99.90
15937;DHT22;9163;48.818;8.976;2023-04-12T10:23:49;10.60;99.90
15937;DHT22;9163;48.818;8.976;2023-04-12T10:26:17;10.80;99.90
15937;DHT22;9163;48.818;8.976;2023-04-12T10:28:45;10.80;99.90
15937;DHT22;9163;48.818;8.976;2023-04-12T10:31:29;10.80;99.90
15937;DHT22;9163;48.818;8.976;2023-04-12T10:34:00;10.80;99.90
15937;DHT22;9163;48.818;8.976;2023-04-12T10:36:49;10.90;99.90
15937;DHT22;9163;48.818;8.976;2023-04-12T10:39:17;10.90;99.90
15937;DHT22;9163;48.818;8.976;2023-04-12T10:42:18;11.10;99.90
15937;DHT22;9163;48.818;8.976;2023-04-12T10:44:46;11.10;99.90
15937;DHT22;9163;48.818;8.976;2023-04-12T10:47:15;11.30;99.90
15937;DHT22;9163;48.818;8.976;2023-04-12T10:50:18;11.50;99.90
15937;DHT22;9163;48.818;8.976;2023-04-12T10:53:22;11.20;99.90
15937;DHT22;9163;48.818;8.976;2023-04-12T10:55:51;11.30;99.90
15937;DHT22;9163;48.818;8.976;2023-04-12T10:58:53;11.30;99.90
15937;DHT22;9163;48.818;8.976;2023-04-12T11:01:20;11.50;99.90
15937;DHT22;9163;48.818;8.976;2023-04-12T11:04:08;11.70;99.90
15937;DHT22;9163;48.818;8.976;2023-04-12T11:06:41;11.80;99.90
15937;DHT22;9163;48.818;8.976;2023-04-12T11:09:17;11.70;99.90
15937;DHT22;9163;48.818;8.976;2023-04-12T11:11:44;11.60;99.90
15937;DHT22;9163;48.818;8.976;2023-04-12T11:14:12;11.80;99.90
15937;DHT22;9163;48.818;8.976;2023-04-12T11:19:51;11.50;99.90
15937;DHT22;9163;48.818;8.976;2023-04-12T11:22:20;11.70;99.90
15937;DHT22;9163;48.818;8.976;2023-04-12T11:24:49;11.70;99.90
15937;DHT22;9163;48.818;8.976;2023-04-12T11:27:18;11.70;99.90
15937;DHT22;9163;48.818;8.976;2023-04-12T11:29:50;11.80;99.90
15937;DHT22;9163;48.818;8.976;2023-04-12T11:32:20;11.80;99.90
15937;DHT22;9163;48.818;8.976;2023-04-12T11:34:49;12.10;99.90
15937;DHT22;9163;48.818;8.976;2023-04-12T11:37:20;12.50;99.90
15937;DHT22;9163;48.818;8.976;2023-04-12T11:39:51;13.10;99.90
15937;DHT22;9163;48.818;8.976;2023-04-12T11:42:20;13.30;99.90
15937;DHT22;9163;48.818;8.976;2023-04-12T11:44:49;13.10;99.90
15937;DHT22;9163;48.818;8.976;2023-04-12T11:47:18;13.00;99.90
15937;DHT22;9163;48.818;8.976;2023-04-12T11:49:47;12.70;99.90
15937;DHT22;9163;48.818;8.976;2023-04-12T11:52:17;12.50;99.90
15937;DHT22;9163;48.818;8.976;2023-04-12T11:54:45;12.30;99.90
15937;DHT22;9163;48.818;8.976;2023-04-12T11:57:15;12.20;99.90
15937;DHT22;9163;48.818;8.976;2023-04-12T11:59:44;12.20;99.90
15937;DHT22;9163;48.818;8.976;2023-04-12T12:02:12;12.20;99.90
15937;DHT22;9163;48.818;8.976;2023-04-12T12:04:42;12.30;99.90
15937;DHT22;9163;48.818;8.976;2023-04-12T12:07:11;12.40;99.90
15937;DHT22;9163;48.818;8.976;2023-04-12T12:09:40;12.50;99.90
15937;DHT22;9163;48.818;8.976;2023-04-12T12:12:10;12.50;99.90
15937;DHT22;9163;48.818;8.976;2023-04-12T12:14:37;12.80;99.90
15937;DHT22;9163;48.818;8.976;2023-04-12T12:17:09;13.10;99.90
15937;DHT22;9163;48.818;8.976;2023-04-12T12:19:38;13.10;99.90
15937;DHT22;9163;48.818;8.976;2023-04-12T12:22:13;13.10;99.90
15937;DHT22;9163;48.818;8.976;2023-04-12T12:24:46;12.90;99.90
15937;DHT22;9163;48.818;8.976;2023-04-12T12:27:17;12.70;99.90
15937;DHT22;9163;48.818;8.976;2023-04-12T12:29:49;12.60;99.90
15937;DHT22;9163;48.818;8.976;2023-04-12T12:32:17;12.80;99.90
15937;DHT22;9163;48.818;8.976;2023-04-12T12:34:51;12.90;99.90
15937;DHT22;9163;48.818;8.976;2023-04-12T12:37:20;12.90;99.90
15937;DHT22;9163;48.818;8.976;2023-04-12T12:40:04;13.30;99.90
15937;DHT22;9163;48.818;8.976;2023-04-12T12:42:45;13.50;99.90
15937;DHT22;9163;48.818;8.976;2023-04-12T12:45:14;13.50;99.90
15937;DHT22;9163;48.818;8.976;2023-04-12T12:47:49;13.60;99.90
15937;DHT22;9163;48.818;8.976;2023-04-12T12:50:17;13.30;99.90
15937;DHT22;9163;48.818;8.976;2023-04-12T12:52:45;13.20;99.90
15937;DHT22;9163;48.818;8.976;2023-04-12T12:55:14;13.20;99.90
15937;DHT22;9163;48.818;8.976;2023-04-12T12:57:42;13.20;99.90
15937;DHT22;9163;48.818;8.976;2023-04-12T13:00:11;13.10;99.90
15937;DHT22;9163;48.818;8.976;2023-04-12T13:02:40;12.90;99.90
15937;DHT22;9163;48.818;8.976;2023-04-12T13:05:08;12.80;99.90
15937;DHT22;9163;48.818;8.976;2023-04-12T13:07:36;12.80;99.90
15937;DHT22;9163;48.818;8.976;2023-04-12T13:10:04;12.90;99.90
15937;DHT22;9163;48.818;8.976;2023-04-12T13:12:33;12.90;99.90
15937;DHT22;9163;48.818;8.976;2023-04-12T13:15:01;12.90;99.90
15937;DHT22;9163;48.818;8.976;2023-04-12T13:17:29;12.80;99.90
15937;DHT22;9163;48.818;8.976;2023-04-12T13:19:57;12.80;99.90
15937;DHT22;9163;48.818;8.976;2023-04-12T13:22:24;12.80;99.90
15937;DHT22;9163;48.818;8.976;2023-04-12T13:24:52;12.70;99.90
15937;DHT22;9163;48.818;8.976;2023-04-12T13:27:20;12.70;99.90
15937;DHT22;9163;48.818;8.976;2023-04-12T13:29:48;12.60;99.90
15937;DHT22;9163;48.818;8.976;2023-04-12T13:32:15;12.80;99.90
15937;DHT22;9163;48.818;8.976;2023-04-12T13:34:43;13.00;99.90
15937;DHT22;9163;48.818;8.976;2023-04-12T13:37:10;13.40;99.90
15937;DHT22;9163;48.818;8.976;2023-04-12T13:39:38;13.70;99.90
15937;DHT22;9163;48.818;8.976;2023-04-12T13:42:06;13.60;99.90
15937;DHT22;9163;48.818;8.976;2023-04-12T13:44:34;13.80;99.90
15937;DHT22;9163;48.818;8.976;2023-04-12T13:47:03;13.80;99.90
15937;DHT22;9163;48.818;8.976;2023-04-12T13:49:30;13.90;99.90
15937;DHT22;9163;48.818;8.976;2023-04-12T13:51:57;13.80;99.90
15937;DHT22;9163;48.818;8.976;2023-04-12T13:54:25;13.50;99.90
15937;DHT22;9163;48.818;8.976;2023-04-12T13:56:52;13.20;99.90
15937;DHT22;9163;48.818;8.976;2023-04-12T13:59:19;13.10;99.90
15937;DHT22;9163;48.818;8.976;2023-04-12T14:01:46;13.10;99.90
15937;DHT22;9163;48.818;8.976;2023-04-12T14:04:15;13.10;99.90
15937;DHT22;9163;48.818;8.976;2023-04-12T14:06:42;13.10;99.90
15937;DHT22;9163;48.818;8.976;2023-04-12T14:09:21;13.10;99.90
15937;DHT22;9163;48.818;8.976;2023-04-12T14:11:50;13.10;99.90
15937;DHT22;9163;48.818;8.976;2023-04-12T14:14:20;13.00;99.90
15937;DHT22;9163;48.818;8.976;2023-04-12T14:16:48;13.00;99.90
15937;DHT22;9163;48.818;8.976;2023-04-12T14:19:16;13.10;99.90
15937;DHT22;9163;48.818;8.976;2023-04-12T14:21:45;13.20;99.90
15937;DHT22;9163;48.818;8.976;2023-04-12T14:24:12;13.40;99.90
15937;DHT22;9163;48.818;8.976;2023-04-12T14:26:40;13.50;99.90
15937;DHT22;9163;48.818;8.976;2023-04-12T14:29:07;13.50;99.90
15937;DHT22;9163;48.818;8.976;2023-04-12T14:31:35;13.90;99.90
15937;DHT22;9163;48.818;8.976;2023-04-12T14:34:03;14.40;99.90
15937;DHT22;9163;48.818;8.976;2023-04-12T14:36:31;14.50;93.30
15937;DHT22;9163;48.818;8.976;2023-04-12T14:38:59;14.20;90.50
15937;DHT22;9163;48.818;8.976;2023-04-12T14:41:28;13.90;99.90
15937;DHT22;9163;48.818;8.976;2023-04-12T14:43:57;13.80;98.20
15937;DHT22;9163;48.818;8.976;2023-04-12T14:46:24;13.70;99.90
15937;DHT22;9163;48.818;8.976;2023-04-12T14:48:53;13.60;99.90
15937;DHT22;9163;48.818;8.976;2023-04-12T14:51:21;13.50;99.90
15937;DHT22;9163;48.818;8.976;2023-04-12T14:53:50;13.40;99.90
15937;DHT22;9163;48.818;8.976;2023-04-12T14:56:21;13.30;99.90
15937;DHT22;9163;48.818;8.976;2023-04-12T14:58:49;13.20;99.90
15937;DHT22;9163;48.818;8.976;2023-04-12T15:01:18;13.10;99.90
15937;DHT22;9163;48.818;8.976;2023-04-12T15:03:46;12.90;99.90
15937;DHT22;9163;48.818;8.976;2023-04-12T15:06:13;12.40;99.90
15937;DHT22;9163;48.818;8.976;2023-04-12T15:08:40;11.60;99.90
15937;DHT22;9163;48.818;8.976;2023-04-12T15:11:10;10.70;99.90
15937;DHT22;9163;48.818;8.976;2023-04-12T15:13:38;10.20;99.90
15937;DHT22;9163;48.818;8.976;2023-04-12T15:16:07;10.00;99.90
15937;DHT22;9163;48.818;8.976;2023-04-12T15:18:35;9.80;99.90
15937;DHT22;9163;48.818;8.976;2023-04-12T15:21:05;9.60;99.90
15937;DHT22;9163;48.818;8.976;2023-04-12T15:23:33;9.40;99.90
15937;DHT22;9163;48.818;8.976;2023-04-12T15:26:00;9.40;99.90
15937;DHT22;9163;48.818;8.976;2023-04-12T15:28:31;9.40;99.90
15937;DHT22;9163;48.818;8.976;2023-04-12T15:30:58;9.30;99.90
15937;DHT22;9163;48.818;8.976;2023-04-12T15:33:25;9.20;99.90
15937;DHT22;9163;48.818;8.976;2023-04-12T15:35:53;9.20;99.90
15937;DHT22;9163;48.818;8.976;2023-04-12T15:38:22;9.10;99.90
15937;DHT22;9163;48.818;8.976;2023-04-12T15:40:53;9.10;99.90
15937;DHT22;9163;48.818;8.976;2023-04-12T15:43:21;9.20;99.90
15937;DHT22;9163;48.818;8.976;2023-04-12T15:45:50;9.20;99.90
15937;DHT22;9163;48.818;8.976;2023-04-12T15:48:19;9.30;99.90
15937;DHT22;9163;48.818;8.976;2023-04-12T15:50:47;9.40;99.90
15937;DHT22;9163;48.818;8.976;2023-04-12T15:53:15;9.70;99.90
15937;DHT22;9163;48.818;8.976;2023-04-12T15:55:43;9.80;99.90
15937;DHT22;9163;48.818;8.976;2023-04-12T15:58:10;9.90;99.90
15937;DHT22;9163;48.818;8.976;2023-04-12T16:00:38;10.00;99.90
15937;DHT22;9163;48.818;8.976;2023-04-12T16:03:07;10.30;99.90
15937;DHT22;9163;48.818;8.976;2023-04-12T16:05:34;10.20;99.90
15937;DHT22;9163;48.818;8.976;2023-04-12T16:08:02;10.30;99.90
15937;DHT22;9163;48.818;8.976;2023-04-12T16:10:29;10.40;99.90
15937;DHT22;9163;48.818;8.976;2023-04-12T16:12:57;10.40;99.90